createdAt,value
2018-03-15T00:05:52.529Z,28.2
2018-03-15T00:17:40.715Z,28.3
2018-03-15T00:20:37.498Z,28.4
2018-03-15T00:26:31.612Z,28.3
2018-03-15T00:29:28.493Z,28.4
2018-03-15T00:32:25.602Z,28.3
2018-03-15T00:35:22.460Z,28.3
2018-03-15T00:38:19.480Z,28.4
2018-03-15T00:41:16.482Z,28.5
2018-03-15T00:44:13.613Z,28.5
2018-03-15T00:50:07.541Z,28.6
2018-03-15T00:53:04.494Z,28.6
2018-03-15T00:56:01.560Z,28.6
2018-03-15T00:58:58.508Z,28.7
2018-03-15T01:01:55.652Z,28.8
2018-03-15T01:04:52.555Z,28.9
2018-03-15T01:10:46.704Z,28.8
2018-03-15T01:13:43.543Z,28.9
2018-03-15T01:25:31.573Z,29.2
2018-03-15T01:28:28.568Z,29.4
2018-03-15T01:31:25.572Z,29.4
2018-03-15T01:37:19.628Z,29.5
2018-03-15T01:43:13.743Z,29.6
2018-03-15T01:49:07.629Z,30.1
2018-03-15T01:55:01.636Z,30.4
2018-03-15T02:03:52.645Z,30.7
2018-03-15T02:09:47.086Z,30.9
2018-03-15T02:12:43.623Z,30.9
2018-03-15T02:15:40.683Z,30.9
2018-03-15T02:18:37.685Z,30.9
2018-03-15T02:39:16.755Z,31.4
2018-03-15T02:48:08.114Z,31.6
2018-03-15T02:51:04.763Z,31.7
2018-03-15T02:54:01.734Z,31.8
2018-03-15T02:56:58.732Z,31.8
2018-03-15T02:59:55.727Z,31.9
2018-03-15T03:02:53.255Z,32
2018-03-15T03:05:50.196Z,32.1
2018-03-15T03:08:46.691Z,32.2
2018-03-15T03:11:43.781Z,32.3
2018-03-15T03:14:40.814Z,32.3
2018-03-15T03:17:37.793Z,32.4
2018-03-15T03:23:31.777Z,32.4
2018-03-15T03:26:28.722Z,32.6
2018-03-15T03:29:25.766Z,32.6
2018-03-15T03:35:19.957Z,32.8
2018-03-15T03:38:16.783Z,32.8
2018-03-15T03:44:10.922Z,32.9
2018-03-15T03:47:08.039Z,33
2018-03-15T03:53:01.820Z,33.2
2018-03-15T03:55:58.769Z,33.3
2018-03-15T03:58:55.834Z,33.4
2018-03-15T04:01:52.782Z,33.4
2018-03-15T04:04:49.905Z,33.4
2018-03-15T04:10:43.853Z,33.6
2018-03-15T04:13:41.335Z,33.6
2018-03-15T04:22:31.923Z,33.9
2018-03-15T04:25:29.379Z,34
2018-03-15T04:31:22.912Z,34.2
2018-03-15T04:34:19.824Z,34.3
2018-03-15T04:40:13.938Z,34.3
2018-03-15T04:43:10.854Z,34.3
2018-03-15T04:46:08.268Z,34.4
2018-03-15T04:49:04.935Z,34.6
2018-03-15T04:52:02.034Z,34.5
2018-03-15T04:54:58.877Z,34.4
2018-03-15T04:57:55.925Z,34.6
2018-03-15T05:06:47.074Z,34.9
2018-03-15T05:09:43.863Z,35
2018-03-15T05:15:38.027Z,35.1
2018-03-15T05:18:34.966Z,35.1
2018-03-15T05:21:31.958Z,35.1
2018-03-15T05:24:28.867Z,35.1
2018-03-15T05:27:25.980Z,35.1
2018-03-15T05:30:22.954Z,35.2
2018-03-15T05:33:19.962Z,35.3
2018-03-15T05:36:16.975Z,35.3
2018-03-15T05:39:13.994Z,35.3
2018-03-15T05:42:10.957Z,35.3
2018-03-15T05:45:08.159Z,35.3
2018-03-15T06:02:50.045Z,35.4
2018-03-15T06:08:44.051Z,35.4
2018-03-15T06:11:41.003Z,35.3
2018-03-15T06:14:38.238Z,35.4
2018-03-15T06:17:35.016Z,35.5
2018-03-15T06:20:32.524Z,35.4
2018-03-15T06:23:29.046Z,35.4
2018-03-15T06:26:26.101Z,35.4
2018-03-15T06:29:23.019Z,35.3
2018-03-15T06:32:20.135Z,35.4
2018-03-15T06:35:17.045Z,35.4
2018-03-15T06:38:14.113Z,35.5
2018-03-15T06:41:11.059Z,35.6
2018-03-15T06:44:08.260Z,35.6
2018-03-15T06:47:05.061Z,35.6
2018-03-15T06:50:02.510Z,35.6
2018-03-15T06:52:59.101Z,35.6
2018-03-15T06:55:56.163Z,35.6
2018-03-15T06:58:53.077Z,35.6
2018-03-15T07:01:50.135Z,35.7
2018-03-15T07:07:44.171Z,35.7
2018-03-15T07:13:38.231Z,35.8
2018-03-15T07:16:35.185Z,35.9
2018-03-15T07:19:32.150Z,36.1
2018-03-15T07:25:26.139Z,36
2018-03-15T07:28:23.156Z,36.1
2018-03-15T07:31:20.207Z,36.2
2018-03-15T07:34:17.177Z,36.2
2018-03-15T07:37:14.208Z,36.2
2018-03-15T07:40:11.245Z,36.2
2018-03-15T07:43:08.271Z,36.1
2018-03-15T07:46:05.175Z,36
2018-03-15T07:51:59.254Z,36
2018-03-15T08:00:50.244Z,36
2018-03-15T08:03:47.210Z,36
2018-03-15T08:06:44.337Z,36
2018-03-15T08:09:41.202Z,35.9
2018-03-15T08:12:38.723Z,35.9
2018-03-15T08:18:32.353Z,35.8
2018-03-15T08:21:29.237Z,35.8
2018-03-15T08:27:23.271Z,35.8
2018-03-15T08:42:08.373Z,35.6
2018-03-15T08:45:06.024Z,35.4
2018-03-15T08:48:02.491Z,35.4
2018-03-15T09:02:47.390Z,35.2
2018-03-15T09:08:41.397Z,35.2
2018-03-15T09:11:38.375Z,35.2
2018-03-15T09:14:35.497Z,35.1
2018-03-15T09:17:32.306Z,35.1
2018-03-15T09:20:29.800Z,35
2018-03-15T09:23:26.340Z,35
2018-03-15T09:26:23.406Z,34.9
2018-03-15T09:29:20.363Z,34.8
2018-03-15T09:32:17.429Z,34.7
2018-03-15T09:38:11.487Z,34.6
2018-03-15T09:44:05.552Z,34.4
2018-03-15T09:47:02.377Z,34.2
2018-03-15T09:49:59.551Z,34.2
2018-03-15T09:52:56.374Z,34.1
2018-03-15T09:55:53.445Z,34.1
2018-03-15T09:58:50.419Z,34
2018-03-15T10:01:47.443Z,33.9
2018-03-15T10:04:44.364Z,33.8
2018-03-15T10:10:38.532Z,33.6
2018-03-15T10:13:35.819Z,33.4
2018-03-15T10:16:32.551Z,33.2
2018-03-15T10:19:29.487Z,33.2
2018-03-15T10:28:20.520Z,33
2018-03-15T10:31:17.513Z,32.9
2018-03-15T10:34:14.485Z,32.9
2018-03-15T10:43:05.684Z,32.6
2018-03-15T10:46:02.527Z,32.5
2018-03-15T10:48:59.487Z,32.4
2018-03-15T10:51:56.499Z,32.4
2018-03-15T10:54:53.542Z,32.3
2018-03-15T11:00:47.583Z,32.1
2018-03-15T11:03:44.592Z,32.1
2018-03-15T11:09:38.592Z,32
2018-03-15T11:12:35.979Z,31.9
2018-03-15T11:15:32.988Z,31.8
2018-03-15T11:18:29.642Z,31.8
2018-03-15T11:21:26.745Z,31.8
2018-03-15T11:24:23.563Z,31.7
2018-03-15T11:27:20.589Z,31.6
2018-03-15T11:30:17.590Z,31.6
2018-03-15T11:36:11.599Z,31.6
2018-03-15T11:39:08.554Z,31.5
2018-03-15T11:42:05.659Z,31.4
2018-03-15T11:45:02.555Z,31.4
2018-03-15T11:47:59.638Z,31.4
2018-03-15T11:50:56.599Z,31.3
2018-03-15T11:53:53.630Z,31.2
2018-03-15T11:56:50.569Z,31.2
2018-03-15T11:59:47.629Z,31.2
2018-03-15T12:02:44.594Z,31.1
2018-03-15T12:08:38.666Z,31.1
2018-03-15T12:14:32.732Z,31
2018-03-15T12:17:29.678Z,31
2018-03-15T12:20:26.672Z,30.9
2018-03-15T12:23:23.672Z,30.9
2018-03-15T12:26:20.671Z,30.9
2018-03-15T12:29:17.614Z,30.8
2018-03-15T12:32:14.706Z,30.8
2018-03-15T12:35:11.685Z,30.8
2018-03-15T12:38:08.696Z,30.7
2018-03-15T12:41:05.673Z,30.7
2018-03-15T12:44:02.805Z,30.7
2018-03-15T12:46:59.664Z,30.6
2018-03-15T12:49:56.724Z,30.6
2018-03-15T12:52:53.640Z,30.6
2018-03-15T12:55:50.676Z,30.6
2018-03-15T12:58:47.713Z,30.5
2018-03-15T13:01:44.737Z,30.5
2018-03-15T13:04:41.684Z,30.5
2018-03-15T13:10:36.202Z,30.4
2018-03-15T13:13:32.746Z,30.4
2018-03-15T13:16:29.801Z,30.4
2018-03-15T13:19:26.759Z,30.3
2018-03-15T13:22:23.911Z,30.3
2018-03-15T13:25:20.730Z,30.3
2018-03-15T13:28:17.797Z,30.3
2018-03-15T13:34:11.832Z,30.2
2018-03-15T13:37:08.736Z,30.2
2018-03-15T13:40:05.890Z,30.1
2018-03-15T13:43:02.820Z,30.1
2018-03-15T13:45:59.859Z,30
2018-03-15T13:48:56.818Z,30
2018-03-15T13:51:53.847Z,30.1
2018-03-15T13:54:50.844Z,30
2018-03-15T13:57:47.849Z,30
2018-03-15T14:00:44.800Z,29.9
2018-03-15T14:03:41.948Z,29.8
2018-03-15T14:06:38.836Z,29.8
2018-03-15T14:09:36.026Z,29.8
2018-03-15T14:12:32.816Z,29.7
2018-03-15T14:15:29.874Z,29.7
2018-03-15T14:18:26.847Z,29.6
2018-03-15T14:24:20.881Z,29.5
2018-03-15T14:27:17.910Z,29.4
2018-03-15T14:33:11.865Z,29.4
2018-03-15T14:36:08.872Z,29.4
2018-03-15T14:39:05.943Z,29.3
2018-03-15T14:42:02.910Z,29.2
2018-03-15T14:44:59.898Z,29.2
2018-03-15T14:47:56.841Z,29.2
2018-03-15T14:50:53.883Z,29.2
2018-03-15T14:56:47.901Z,29.2
2018-03-15T14:59:44.866Z,29.2
2018-03-15T15:05:39.130Z,29.1
2018-03-15T15:11:33.075Z,29.1
2018-03-15T15:14:29.964Z,29
2018-03-15T15:17:26.928Z,29
2018-03-15T15:20:23.889Z,29
2018-03-15T15:23:21.021Z,28.9
2018-03-15T15:26:17.918Z,28.9
2018-03-15T15:29:14.967Z,28.9
2018-03-15T15:32:11.940Z,28.9
2018-03-15T15:35:08.994Z,28.8
2018-03-15T15:38:06.021Z,28.8
2018-03-15T15:41:02.997Z,28.8
2018-03-15T15:43:59.980Z,28.8
2018-03-15T15:46:57.010Z,28.8
2018-03-15T15:49:53.944Z,28.7
2018-03-15T15:52:50.976Z,28.7
2018-03-15T15:55:47.978Z,28.7
2018-03-15T15:58:45.026Z,28.7
2018-03-15T16:01:41.948Z,28.7
2018-03-15T16:04:38.983Z,28.6
2018-03-15T16:07:35.967Z,28.7
2018-03-15T16:10:33.179Z,28.6
2018-03-15T16:13:29.984Z,28.6
2018-03-15T16:16:27.032Z,28.6
2018-03-15T16:19:23.995Z,28.6
2018-03-15T16:28:15.019Z,28.6
2018-03-15T16:31:12.011Z,28.6
2018-03-15T16:34:09.028Z,28.6
2018-03-15T16:37:06.032Z,28.6
2018-03-15T16:40:03.190Z,28.5
2018-03-15T16:45:57.052Z,28.5
2018-03-15T16:48:54.067Z,28.5
2018-03-15T16:54:48.092Z,28.5
2018-03-15T16:57:45.027Z,28.5
2018-03-15T17:03:39.183Z,28.5
2018-03-15T17:06:36.061Z,28.4
2018-03-15T17:09:33.130Z,28.5
2018-03-15T17:12:30.230Z,28.4
2018-03-15T17:15:27.106Z,28.4
2018-03-15T17:18:24.043Z,28.4
2018-03-15T17:21:21.133Z,28.4
2018-03-15T17:24:18.124Z,28.3
2018-03-15T17:30:12.240Z,28.3
2018-03-15T17:33:09.140Z,28.3
2018-03-15T17:36:06.522Z,28.2
2018-03-15T17:39:03.137Z,28.3
2018-03-15T17:47:54.269Z,28.2
2018-03-15T17:53:48.211Z,28.2
2018-03-15T17:56:45.160Z,28.2
2018-03-15T18:02:39.167Z,28.2
2018-03-15T18:05:36.198Z,28.2
2018-03-15T18:08:33.190Z,28.1
2018-03-15T18:11:30.735Z,28.1
2018-03-15T18:14:27.573Z,28.1
2018-03-15T18:17:24.154Z,28.1
2018-03-15T18:20:21.249Z,28
2018-03-15T18:23:18.156Z,28
2018-03-15T18:26:15.236Z,28
2018-03-15T18:32:09.240Z,28
2018-03-15T18:38:03.227Z,27.9
2018-03-15T18:41:00.255Z,27.9
2018-03-15T18:43:57.260Z,27.9
2018-03-15T18:46:54.236Z,27.8
2018-03-15T18:49:51.258Z,27.8
2018-03-15T18:52:48.222Z,27.8
2018-03-15T18:55:45.248Z,27.8
2018-03-15T18:58:42.211Z,27.8
2018-03-15T19:04:36.276Z,27.7
2018-03-15T19:07:33.204Z,27.7
2018-03-15T19:10:30.735Z,27.6
2018-03-15T19:13:27.276Z,27.6
2018-03-15T19:16:24.411Z,27.6
2018-03-15T19:19:21.530Z,27.6
2018-03-15T19:22:18.289Z,27.6
2018-03-15T19:25:15.243Z,27.5
2018-03-15T19:28:12.348Z,27.5
2018-03-15T19:31:09.303Z,27.4
2018-03-15T19:34:06.337Z,27.4
2018-03-15T19:37:03.311Z,27.4
2018-03-15T19:40:00.702Z,27.4
2018-03-15T19:42:57.288Z,27.3
2018-03-15T19:45:54.773Z,27.3
2018-03-15T19:48:51.300Z,27.3
2018-03-15T19:51:48.356Z,27.3
2018-03-15T19:54:45.292Z,27.3
2018-03-15T19:57:42.368Z,27.3
2018-03-15T20:00:39.301Z,27.2
2018-03-15T20:03:36.428Z,27.2
2018-03-15T20:06:33.461Z,27.2
2018-03-15T20:09:30.334Z,27.2
2018-03-15T20:12:27.342Z,27.2
2018-03-15T20:18:21.815Z,27.2
2018-03-15T20:21:18.347Z,27.2
2018-03-15T20:24:15.360Z,27.2
2018-03-15T20:27:12.369Z,27.1
2018-03-15T20:30:09.396Z,27.1
2018-03-15T20:33:06.326Z,27.1
2018-03-15T20:36:03.381Z,27.1
2018-03-15T20:39:00.357Z,27.1
2018-03-15T20:41:57.406Z,27.1
2018-03-15T20:44:54.354Z,27.1
2018-03-15T20:47:51.891Z,27.1
2018-03-15T20:50:48.400Z,27.1
2018-03-15T20:53:45.407Z,27.1
2018-03-15T20:59:39.512Z,27.1
2018-03-15T21:02:36.786Z,27.1
2018-03-15T21:05:33.409Z,27.1
2018-03-15T21:08:30.392Z,27.1
2018-03-15T21:11:27.612Z,27.1
2018-03-15T21:14:24.459Z,27.1
2018-03-15T21:17:21.483Z,27.1
2018-03-15T21:20:18.468Z,27
2018-03-15T21:23:15.424Z,27
2018-03-15T21:26:13.030Z,27
2018-03-15T21:29:09.918Z,27
2018-03-15T21:32:06.449Z,27
2018-03-15T21:35:03.495Z,27
2018-03-15T21:38:00.436Z,27.1
2018-03-15T21:43:54.957Z,27.2
2018-03-15T21:49:48.519Z,27.3
2018-03-15T21:52:45.462Z,27.3
2018-03-15T21:55:42.492Z,27.3
2018-03-15T21:58:39.506Z,27.4
2018-03-15T22:01:36.612Z,27.4
2018-03-15T22:04:33.512Z,27.4
2018-03-15T22:10:27.610Z,27.3
2018-03-15T22:13:25.088Z,27.3
2018-03-15T22:16:21.545Z,27.3
2018-03-15T22:19:18.490Z,27.3
2018-03-15T22:25:12.580Z,27.2
2018-03-15T22:31:06.543Z,27.2
2018-03-15T22:34:03.514Z,27.2
2018-03-15T22:37:00.546Z,27.2
2018-03-15T22:39:58.044Z,27.2
2018-03-15T22:42:55.021Z,27.2
2018-03-15T22:45:51.971Z,27.2
2018-03-15T22:48:48.557Z,27.2
2018-03-15T22:51:45.553Z,27.2
2018-03-15T22:54:42.597Z,27.2
2018-03-15T22:57:39.573Z,27.2
2018-03-15T23:00:36.710Z,27.2
2018-03-15T23:06:30.705Z,27.2
2018-03-15T23:09:27.614Z,27.2
2018-03-15T23:12:25.117Z,27.2
2018-03-15T23:18:18.607Z,27.2
2018-03-15T23:21:16.165Z,27.2
2018-03-15T23:24:13.153Z,27.2
2018-03-15T23:27:09.783Z,27.2
2018-03-15T23:30:06.697Z,27.2
2018-03-15T23:33:03.662Z,27.1
2018-03-15T23:36:00.605Z,27.1
2018-03-15T23:38:57.698Z,27.1
2018-03-15T23:41:54.757Z,27.2
2018-03-15T23:44:51.681Z,27.2
2018-03-15T23:47:48.766Z,27.2
2018-03-15T23:50:45.612Z,27.2
2018-03-15T23:53:42.701Z,27.2
2018-03-15T23:56:39.613Z,27.3
2018-03-15T23:59:36.710Z,27.3
